Hauptseite
METAR-TAF:

METAR-TAF

Flughäfen :

Flugplatz Laupheim

Laupheim, Deutschland

Breite: 48-13N, Länge: 009-55E, Höhe: 538 m

Beobachtung

Neuester Wetterbericht von vor 59 Minuten, um 10:20 UTC
Wind 4 kt aus Ost
Temperatur 24°C
Luftfeuchtigkeit 41%
Luftdruck 1018 hPa
Sichtweite 10 km oder mehr
Leicht bewölkt in der Höhe von 5000 ft
Aufgelockert bewölkt in der Höhe von 33000 ft

METAR: ETHL 191020Z 08004KT 9999 FEW050 SCT330 24/10 Q1018 BLU+BLU+

Zeit: 13:19 (11:19 UTC)

Prognose

Neuester Wetterbericht von vor 1 Stunde und 3 Minuten, um 10:16 UTC
Gültige Prognose vom 19 um 11 UTC bis 19 um 20 UTC
Wind 5 kt aus Nordost
Sichtweite 10 km oder mehr
Leicht bewölkt in der Höhe von 5000 ft
Aufgelockert bewölkt in der Höhe von 35000 ft

TAF: ETHL 191016Z 1911/1920 05005KT 9999 NSW FEW050 SCT350

Wetterbeobachtungen und Prognosen von mehr als 4000 Flughäfen (METAR und TAF Bericht).

Die verfügbaren Stationen werden durch gelbe und rote Markierungen auf der Karte dargestellt.

Führen Sie die Maus auf sie, um den Namen der Station zu sehen.

Darauf klicken, um die Beobachtung von Wetterbeobachtungen und Prognosen zu sehen.

Um die Karte zu ändern : klicken Sie auf den grünen Tasten mit einem schwarzen Kreuz Zum Vergrößern, auf den grünen Button mit einem Gedankenstrich zu verkleinern, oder auf die grünen Pfeile für benachbarte Karten.


METAR-TAF: